sensor_id;sensor_type;location;lat;lon;timestamp;temperature;humidity
12315;DHT22;23886;46.614;14.276;2022-08-03T00:00:27;17.10;99.90
12315;DHT22;23886;46.614;14.276;2022-08-03T00:02:54;17.00;99.90
12315;DHT22;23886;46.614;14.276;2022-08-03T00:05:21;16.90;99.90
12315;DHT22;23886;46.614;14.276;2022-08-03T00:07:48;16.90;99.90
12315;DHT22;23886;46.614;14.276;2022-08-03T00:10:15;16.80;99.90
12315;DHT22;23886;46.614;14.276;2022-08-03T00:12:42;16.80;99.90
12315;DHT22;23886;46.614;14.276;2022-08-03T00:15:10;16.80;99.90
12315;DHT22;23886;46.614;14.276;2022-08-03T00:17:39;16.80;99.90
12315;DHT22;23886;46.614;14.276;2022-08-03T00:20:06;16.90;99.90
12315;DHT22;23886;46.614;14.276;2022-08-03T00:22:33;16.90;99.90
12315;DHT22;23886;46.614;14.276;2022-08-03T00:25:00;16.80;99.90
12315;DHT22;23886;46.614;14.276;2022-08-03T00:27:27;16.70;99.90
12315;DHT22;23886;46.614;14.276;2022-08-03T00:29:54;16.70;99.90
12315;DHT22;23886;46.614;14.276;2022-08-03T00:32:22;16.70;99.90
12315;DHT22;23886;46.614;14.276;2022-08-03T00:34:51;16.80;99.90
12315;DHT22;23886;46.614;14.276;2022-08-03T00:37:17;16.80;99.90
12315;DHT22;23886;46.614;14.276;2022-08-03T00:39:44;16.80;99.90
12315;DHT22;23886;46.614;14.276;2022-08-03T00:42:12;16.80;99.90
12315;DHT22;23886;46.614;14.276;2022-08-03T00:44:40;16.70;99.90
12315;DHT22;23886;46.614;14.276;2022-08-03T00:47:07;16.80;99.90
12315;DHT22;23886;46.614;14.276;2022-08-03T00:49:35;16.80;99.90
12315;DHT22;23886;46.614;14.276;2022-08-03T00:52:04;16.70;99.90
12315;DHT22;23886;46.614;14.276;2022-08-03T00:54:31;16.70;99.90
12315;DHT22;23886;46.614;14.276;2022-08-03T00:56:59;16.60;99.90
12315;DHT22;23886;46.614;14.276;2022-08-03T00:59:26;16.40;99.90
12315;DHT22;23886;46.614;14.276;2022-08-03T01:01:53;16.40;99.90
12315;DHT22;23886;46.614;14.276;2022-08-03T01:04:20;16.30;99.90
12315;DHT22;23886;46.614;14.276;2022-08-03T01:06:51;16.40;99.90
12315;DHT22;23886;46.614;14.276;2022-08-03T01:09:30;16.40;99.90
12315;DHT22;23886;46.614;14.276;2022-08-03T01:12:06;16.50;99.90
12315;DHT22;23886;46.614;14.276;2022-08-03T01:14:39;16.60;99.90
12315;DHT22;23886;46.614;14.276;2022-08-03T01:17:12;16.50;99.90
12315;DHT22;23886;46.614;14.276;2022-08-03T01:19:53;16.40;99.90
12315;DHT22;23886;46.614;14.276;2022-08-03T01:22:44;16.40;99.90
12315;DHT22;23886;46.614;14.276;2022-08-03T01:25:27;16.40;99.90
12315;DHT22;23886;46.614;14.276;2022-08-03T01:28:05;16.40;99.90
12315;DHT22;23886;46.614;14.276;2022-08-03T01:30:40;16.40;99.90
12315;DHT22;23886;46.614;14.276;2022-08-03T01:33:12;16.30;99.90
12315;DHT22;23886;46.614;14.276;2022-08-03T01:35:46;16.20;99.90
12315;DHT22;23886;46.614;14.276;2022-08-03T01:38:19;16.00;99.90
12315;DHT22;23886;46.614;14.276;2022-08-03T01:40:49;16.00;99.90
12315;DHT22;23886;46.614;14.276;2022-08-03T01:43:22;16.00;99.90
12315;DHT22;23886;46.614;14.276;2022-08-03T01:45:54;16.10;99.90
12315;DHT22;23886;46.614;14.276;2022-08-03T01:48:22;16.10;99.90
12315;DHT22;23886;46.614;14.276;2022-08-03T01:50:50;16.20;99.90
12315;DHT22;23886;46.614;14.276;2022-08-03T01:53:18;16.10;99.90
12315;DHT22;23886;46.614;14.276;2022-08-03T01:55:48;16.10;99.90
12315;DHT22;23886;46.614;14.276;2022-08-03T01:58:19;16.10;99.90
12315;DHT22;23886;46.614;14.276;2022-08-03T02:00:48;16.10;99.90
12315;DHT22;23886;46.614;14.276;2022-08-03T02:03:17;16.20;99.90
12315;DHT22;23886;46.614;14.276;2022-08-03T02:05:47;16.10;99.90
12315;DHT22;23886;46.614;14.276;2022-08-03T02:08:16;16.00;99.90
12315;DHT22;23886;46.614;14.276;2022-08-03T02:10:45;16.00;99.90
12315;DHT22;23886;46.614;14.276;2022-08-03T02:13:13;15.90;99.90
12315;DHT22;23886;46.614;14.276;2022-08-03T02:15:41;15.90;99.90
12315;DHT22;23886;46.614;14.276;2022-08-03T02:18:10;15.90;99.90
12315;DHT22;23886;46.614;14.276;2022-08-03T02:20:40;15.90;99.90
12315;DHT22;23886;46.614;14.276;2022-08-03T02:23:07;15.90;99.90
12315;DHT22;23886;46.614;14.276;2022-08-03T02:25:39;15.90;99.90
12315;DHT22;23886;46.614;14.276;2022-08-03T02:28:10;15.90;99.90
12315;DHT22;23886;46.614;14.276;2022-08-03T02:30:39;15.80;99.90
12315;DHT22;23886;46.614;14.276;2022-08-03T02:33:11;15.80;99.90
12315;DHT22;23886;46.614;14.276;2022-08-03T02:35:42;15.70;99.90
12315;DHT22;23886;46.614;14.276;2022-08-03T02:38:10;15.70;99.90
12315;DHT22;23886;46.614;14.276;2022-08-03T02:40:40;15.70;99.90
12315;DHT22;23886;46.614;14.276;2022-08-03T02:43:11;15.70;99.90
12315;DHT22;23886;46.614;14.276;2022-08-03T02:45:43;15.70;99.90
12315;DHT22;23886;46.614;14.276;2022-08-03T02:48:11;15.60;99.90
12315;DHT22;23886;46.614;14.276;2022-08-03T02:50:43;15.70;99.90
12315;DHT22;23886;46.614;14.276;2022-08-03T02:53:11;15.60;99.90
12315;DHT22;23886;46.614;14.276;2022-08-03T02:55:41;15.50;99.90
12315;DHT22;23886;46.614;14.276;2022-08-03T02:58:08;15.50;99.90
12315;DHT22;23886;46.614;14.276;2022-08-03T03:00:38;15.50;99.90
12315;DHT22;23886;46.614;14.276;2022-08-03T03:03:05;15.40;99.90
12315;DHT22;23886;46.614;14.276;2022-08-03T03:05:34;15.50;99.90
12315;DHT22;23886;46.614;14.276;2022-08-03T03:08:02;15.40;99.90
12315;DHT22;23886;46.614;14.276;2022-08-03T03:10:30;15.30;99.90
12315;DHT22;23886;46.614;14.276;2022-08-03T03:12:58;15.30;99.90
12315;DHT22;23886;46.614;14.276;2022-08-03T03:15:27;15.40;99.90
12315;DHT22;23886;46.614;14.276;2022-08-03T03:17:56;15.40;99.90
12315;DHT22;23886;46.614;14.276;2022-08-03T03:20:24;15.50;99.90
12315;DHT22;23886;46.614;14.276;2022-08-03T03:22:52;15.50;99.90
12315;DHT22;23886;46.614;14.276;2022-08-03T03:25:21;15.60;99.90
12315;DHT22;23886;46.614;14.276;2022-08-03T03:27:48;15.60;99.90
12315;DHT22;23886;46.614;14.276;2022-08-03T03:30:16;15.50;99.90
12315;DHT22;23886;46.614;14.276;2022-08-03T03:32:43;15.50;99.90
12315;DHT22;23886;46.614;14.276;2022-08-03T03:35:10;15.40;99.90
12315;DHT22;23886;46.614;14.276;2022-08-03T03:37:39;15.40;99.90
12315;DHT22;23886;46.614;14.276;2022-08-03T03:40:07;15.40;99.90
12315;DHT22;23886;46.614;14.276;2022-08-03T03:42:36;15.30;99.90
12315;DHT22;23886;46.614;14.276;2022-08-03T03:45:03;15.30;99.90
12315;DHT22;23886;46.614;14.276;2022-08-03T03:47:33;15.40;99.90
12315;DHT22;23886;46.614;14.276;2022-08-03T03:50:01;15.40;99.90
12315;DHT22;23886;46.614;14.276;2022-08-03T03:52:28;15.50;99.90
12315;DHT22;23886;46.614;14.276;2022-08-03T03:54:55;15.60;99.90
12315;DHT22;23886;46.614;14.276;2022-08-03T03:57:22;15.60;99.90
12315;DHT22;23886;46.614;14.276;2022-08-03T03:59:51;15.50;99.90
12315;DHT22;23886;46.614;14.276;2022-08-03T04:02:18;15.60;99.90
12315;DHT22;23886;46.614;14.276;2022-08-03T04:04:45;15.60;99.90
12315;DHT22;23886;46.614;14.276;2022-08-03T04:07:37;15.60;99.90
12315;DHT22;23886;46.614;14.276;2022-08-03T04:10:28;15.60;99.90
12315;DHT22;23886;46.614;14.276;2022-08-03T04:13:15;15.70;99.90
12315;DHT22;23886;46.614;14.276;2022-08-03T04:15:45;15.70;99.90
12315;DHT22;23886;46.614;14.276;2022-08-03T04:18:14;15.70;99.90
12315;DHT22;23886;46.614;14.276;2022-08-03T04:20:45;15.70;99.90
12315;DHT22;23886;46.614;14.276;2022-08-03T04:23:13;15.80;99.90
12315;DHT22;23886;46.614;14.276;2022-08-03T04:25:42;15.90;99.90
12315;DHT22;23886;46.614;14.276;2022-08-03T04:28:11;16.00;99.90
12315;DHT22;23886;46.614;14.276;2022-08-03T04:30:39;16.00;99.90
12315;DHT22;23886;46.614;14.276;2022-08-03T04:33:13;16.10;99.90
12315;DHT22;23886;46.614;14.276;2022-08-03T04:35:43;16.10;99.90
12315;DHT22;23886;46.614;14.276;2022-08-03T04:38:13;16.20;99.90
12315;DHT22;23886;46.614;14.276;2022-08-03T04:40:42;16.20;99.90
12315;DHT22;23886;46.614;14.276;2022-08-03T04:43:12;16.30;99.90
12315;DHT22;23886;46.614;14.276;2022-08-03T04:45:40;16.40;99.90
12315;DHT22;23886;46.614;14.276;2022-08-03T04:48:09;16.40;99.90
12315;DHT22;23886;46.614;14.276;2022-08-03T04:50:37;16.50;99.90
12315;DHT22;23886;46.614;14.276;2022-08-03T04:53:06;16.60;99.90
12315;DHT22;23886;46.614;14.276;2022-08-03T04:55:34;16.70;99.90
12315;DHT22;23886;46.614;14.276;2022-08-03T04:58:02;16.80;99.90
12315;DHT22;23886;46.614;14.276;2022-08-03T05:00:29;17.00;99.90
12315;DHT22;23886;46.614;14.276;2022-08-03T05:02:56;17.10;99.90
12315;DHT22;23886;46.614;14.276;2022-08-03T05:05:24;17.20;99.90
12315;DHT22;23886;46.614;14.276;2022-08-03T05:07:52;17.40;99.90
12315;DHT22;23886;46.614;14.276;2022-08-03T05:10:19;17.40;99.90
12315;DHT22;23886;46.614;14.276;2022-08-03T05:12:47;17.40;99.90
12315;DHT22;23886;46.614;14.276;2022-08-03T05:15:16;17.30;99.90
12315;DHT22;23886;46.614;14.276;2022-08-03T05:17:43;17.30;99.90
12315;DHT22;23886;46.614;14.276;2022-08-03T05:20:11;17.30;99.90
12315;DHT22;23886;46.614;14.276;2022-08-03T05:22:38;17.40;99.90
12315;DHT22;23886;46.614;14.276;2022-08-03T05:25:07;17.50;99.90
12315;DHT22;23886;46.614;14.276;2022-08-03T05:27:34;17.50;99.90
12315;DHT22;23886;46.614;14.276;2022-08-03T05:30:01;17.60;99.90
12315;DHT22;23886;46.614;14.276;2022-08-03T05:32:28;17.80;99.90
12315;DHT22;23886;46.614;14.276;2022-08-03T05:34:55;17.90;99.90
12315;DHT22;23886;46.614;14.276;2022-08-03T05:37:22;17.90;99.90
12315;DHT22;23886;46.614;14.276;2022-08-03T05:39:49;18.00;99.90
12315;DHT22;23886;46.614;14.276;2022-08-03T05:42:17;17.90;99.90
12315;DHT22;23886;46.614;14.276;2022-08-03T05:44:44;17.90;99.90
12315;DHT22;23886;46.614;14.276;2022-08-03T05:47:12;18.00;99.90
12315;DHT22;23886;46.614;14.276;2022-08-03T05:49:39;17.90;99.90
12315;DHT22;23886;46.614;14.276;2022-08-03T05:52:06;17.90;99.90
12315;DHT22;23886;46.614;14.276;2022-08-03T05:54:33;17.90;99.90
12315;DHT22;23886;46.614;14.276;2022-08-03T05:57:00;17.80;99.90
12315;DHT22;23886;46.614;14.276;2022-08-03T05:59:28;17.90;99.90
12315;DHT22;23886;46.614;14.276;2022-08-03T06:01:55;17.90;99.90
12315;DHT22;23886;46.614;14.276;2022-08-03T06:04:22;18.00;99.90
12315;DHT22;23886;46.614;14.276;2022-08-03T06:06:49;18.10;99.90
12315;DHT22;23886;46.614;14.276;2022-08-03T06:09:19;18.10;99.90
12315;DHT22;23886;46.614;14.276;2022-08-03T06:11:46;18.20;99.90
12315;DHT22;23886;46.614;14.276;2022-08-03T06:14:13;18.30;99.90
12315;DHT22;23886;46.614;14.276;2022-08-03T06:16:42;18.30;99.90
12315;DHT22;23886;46.614;14.276;2022-08-03T06:19:09;18.30;99.90
12315;DHT22;23886;46.614;14.276;2022-08-03T06:21:36;18.50;99.90
12315;DHT22;23886;46.614;14.276;2022-08-03T06:24:03;18.50;99.90
12315;DHT22;23886;46.614;14.276;2022-08-03T06:26:31;18.50;99.90
12315;DHT22;23886;46.614;14.276;2022-08-03T06:28:58;18.50;99.90
12315;DHT22;23886;46.614;14.276;2022-08-03T06:31:26;18.60;99.90
12315;DHT22;23886;46.614;14.276;2022-08-03T06:33:55;18.70;99.90
12315;DHT22;23886;46.614;14.276;2022-08-03T06:36:22;18.70;99.90
12315;DHT22;23886;46.614;14.276;2022-08-03T06:38:50;18.90;99.90
12315;DHT22;23886;46.614;14.276;2022-08-03T06:41:17;19.00;99.90
12315;DHT22;23886;46.614;14.276;2022-08-03T06:43:44;19.10;99.90
12315;DHT22;23886;46.614;14.276;2022-08-03T06:46:11;19.20;99.90
12315;DHT22;23886;46.614;14.276;2022-08-03T06:48:38;19.20;99.90
12315;DHT22;23886;46.614;14.276;2022-08-03T06:51:06;19.30;99.90
12315;DHT22;23886;46.614;14.276;2022-08-03T06:53:33;19.40;99.90
12315;DHT22;23886;46.614;14.276;2022-08-03T06:56:00;19.50;99.90
12315;DHT22;23886;46.614;14.276;2022-08-03T06:58:27;19.60;99.90
12315;DHT22;23886;46.614;14.276;2022-08-03T07:00:54;19.70;99.90
12315;DHT22;23886;46.614;14.276;2022-08-03T07:03:21;19.80;99.90
12315;DHT22;23886;46.614;14.276;2022-08-03T07:05:49;19.80;99.90
12315;DHT22;23886;46.614;14.276;2022-08-03T07:08:18;19.90;99.90
12315;DHT22;23886;46.614;14.276;2022-08-03T07:10:45;20.10;99.90
12315;DHT22;23886;46.614;14.276;2022-08-03T07:13:12;20.20;99.90
12315;DHT22;23886;46.614;14.276;2022-08-03T07:15:39;20.20;99.90
12315;DHT22;23886;46.614;14.276;2022-08-03T07:18:06;20.20;99.90
12315;DHT22;23886;46.614;14.276;2022-08-03T07:20:33;20.30;99.90
12315;DHT22;23886;46.614;14.276;2022-08-03T07:23:00;20.40;99.90
12315;DHT22;23886;46.614;14.276;2022-08-03T07:25:29;20.40;99.90
12315;DHT22;23886;46.614;14.276;2022-08-03T07:27:56;20.50;99.90
12315;DHT22;23886;46.614;14.276;2022-08-03T07:30:23;20.60;99.90
12315;DHT22;23886;46.614;14.276;2022-08-03T07:32:50;20.70;99.90
12315;DHT22;23886;46.614;14.276;2022-08-03T07:35:17;20.80;99.90
12315;DHT22;23886;46.614;14.276;2022-08-03T07:37:44;20.90;99.90
12315;DHT22;23886;46.614;14.276;2022-08-03T07:40:11;21.00;99.90
12315;DHT22;23886;46.614;14.276;2022-08-03T07:42:40;21.10;99.90
12315;DHT22;23886;46.614;14.276;2022-08-03T07:45:08;21.20;99.90
12315;DHT22;23886;46.614;14.276;2022-08-03T07:47:35;21.20;99.90
12315;DHT22;23886;46.614;14.276;2022-08-03T07:50:04;21.30;99.90
12315;DHT22;23886;46.614;14.276;2022-08-03T07:52:31;21.40;99.90
12315;DHT22;23886;46.614;14.276;2022-08-03T07:55:14;21.40;99.90
12315;DHT22;23886;46.614;14.276;2022-08-03T07:57:43;21.50;99.90
12315;DHT22;23886;46.614;14.276;2022-08-03T08:00:13;21.50;99.90
12315;DHT22;23886;46.614;14.276;2022-08-03T08:02:41;21.50;99.90
12315;DHT22;23886;46.614;14.276;2022-08-03T08:05:08;21.70;99.90
12315;DHT22;23886;46.614;14.276;2022-08-03T08:07:37;21.80;99.90
12315;DHT22;23886;46.614;14.276;2022-08-03T08:10:06;21.90;99.90
12315;DHT22;23886;46.614;14.276;2022-08-03T08:12:34;22.00;99.90
12315;DHT22;23886;46.614;14.276;2022-08-03T08:15:05;22.20;99.90
12315;DHT22;23886;46.614;14.276;2022-08-03T08:17:40;22.30;99.90
12315;DHT22;23886;46.614;14.276;2022-08-03T08:20:09;22.40;99.90
12315;DHT22;23886;46.614;14.276;2022-08-03T08:22:36;22.40;99.90
12315;DHT22;23886;46.614;14.276;2022-08-03T08:25:04;22.50;99.90
12315;DHT22;23886;46.614;14.276;2022-08-03T08:27:31;22.40;99.90
12315;DHT22;23886;46.614;14.276;2022-08-03T08:29:58;22.50;99.90
12315;DHT22;23886;46.614;14.276;2022-08-03T08:32:26;22.70;99.90
12315;DHT22;23886;46.614;14.276;2022-08-03T08:34:53;22.70;99.90
12315;DHT22;23886;46.614;14.276;2022-08-03T08:37:21;22.70;99.90
12315;DHT22;23886;46.614;14.276;2022-08-03T08:39:48;22.80;99.90
12315;DHT22;23886;46.614;14.276;2022-08-03T08:42:15;22.80;99.90
12315;DHT22;23886;46.614;14.276;2022-08-03T08:44:42;22.90;99.90
12315;DHT22;23886;46.614;14.276;2022-08-03T08:47:10;23.00;99.90
12315;DHT22;23886;46.614;14.276;2022-08-03T08:49:39;23.10;99.90
12315;DHT22;23886;46.614;14.276;2022-08-03T08:52:07;23.30;99.90
12315;DHT22;23886;46.614;14.276;2022-08-03T08:54:35;23.40;99.90
12315;DHT22;23886;46.614;14.276;2022-08-03T08:57:06;23.30;99.90
12315;DHT22;23886;46.614;14.276;2022-08-03T08:59:33;23.50;99.90
12315;DHT22;23886;46.614;14.276;2022-08-03T09:02:00;23.80;99.90
12315;DHT22;23886;46.614;14.276;2022-08-03T09:04:28;23.90;99.90
12315;DHT22;23886;46.614;14.276;2022-08-03T09:06:56;24.00;99.90
12315;DHT22;23886;46.614;14.276;2022-08-03T09:09:23;24.00;99.90
12315;DHT22;23886;46.614;14.276;2022-08-03T09:11:50;24.10;99.90
12315;DHT22;23886;46.614;14.276;2022-08-03T09:14:18;24.00;99.90
12315;DHT22;23886;46.614;14.276;2022-08-03T09:16:55;24.10;99.90
12315;DHT22;23886;46.614;14.276;2022-08-03T09:19:27;24.30;99.90
12315;DHT22;23886;46.614;14.276;2022-08-03T09:22:09;24.50;99.90
12315;DHT22;23886;46.614;14.276;2022-08-03T09:24:38;24.60;99.90
12315;DHT22;23886;46.614;14.276;2022-08-03T09:27:19;24.50;99.90
12315;DHT22;23886;46.614;14.276;2022-08-03T09:29:47;24.60;99.90
12315;DHT22;23886;46.614;14.276;2022-08-03T09:32:18;24.80;99.90
12315;DHT22;23886;46.614;14.276;2022-08-03T09:34:46;24.90;99.90
12315;DHT22;23886;46.614;14.276;2022-08-03T09:37:16;24.90;99.90
12315;DHT22;23886;46.614;14.276;2022-08-03T09:39:43;25.10;99.90
12315;DHT22;23886;46.614;14.276;2022-08-03T09:42:12;25.10;99.90
12315;DHT22;23886;46.614;14.276;2022-08-03T09:44:42;25.10;99.90
12315;DHT22;23886;46.614;14.276;2022-08-03T09:47:09;25.30;99.90
12315;DHT22;23886;46.614;14.276;2022-08-03T09:49:37;25.40;99.90
12315;DHT22;23886;46.614;14.276;2022-08-03T09:52:17;25.60;99.90
12315;DHT22;23886;46.614;14.276;2022-08-03T09:54:50;25.50;99.90
12315;DHT22;23886;46.614;14.276;2022-08-03T09:57:22;25.60;99.90
12315;DHT22;23886;46.614;14.276;2022-08-03T09:59:50;25.80;99.90
12315;DHT22;23886;46.614;14.276;2022-08-03T10:02:21;25.90;99.90
12315;DHT22;23886;46.614;14.276;2022-08-03T10:04:50;26.20;99.90
12315;DHT22;23886;46.614;14.276;2022-08-03T10:07:20;26.20;99.60
12315;DHT22;23886;46.614;14.276;2022-08-03T10:09:54;26.20;99.90
12315;DHT22;23886;46.614;14.276;2022-08-03T10:12:21;26.30;99.90
12315;DHT22;23886;46.614;14.276;2022-08-03T10:14:49;26.30;99.90
12315;DHT22;23886;46.614;14.276;2022-08-03T10:17:17;26.40;99.90
12315;DHT22;23886;46.614;14.276;2022-08-03T10:19:44;26.50;99.90
12315;DHT22;23886;46.614;14.276;2022-08-03T10:22:13;26.70;98.60
12315;DHT22;23886;46.614;14.276;2022-08-03T10:24:47;26.80;98.60
12315;DHT22;23886;46.614;14.276;2022-08-03T10:27:16;26.90;99.10
12315;DHT22;23886;46.614;14.276;2022-08-03T10:29:48;27.00;99.10
12315;DHT22;23886;46.614;14.276;2022-08-03T10:32:21;27.10;98.00
12315;DHT22;23886;46.614;14.276;2022-08-03T10:34:50;27.20;97.50
12315;DHT22;23886;46.614;14.276;2022-08-03T10:37:18;27.30;98.60
12315;DHT22;23886;46.614;14.276;2022-08-03T10:39:49;27.50;97.60
12315;DHT22;23886;46.614;14.276;2022-08-03T10:42:22;27.60;97.30
12315;DHT22;23886;46.614;14.276;2022-08-03T10:44:52;27.80;95.90
12315;DHT22;23886;46.614;14.276;2022-08-03T10:47:21;27.80;95.20
12315;DHT22;23886;46.614;14.276;2022-08-03T10:49:49;27.60;94.20
12315;DHT22;23886;46.614;14.276;2022-08-03T10:52:16;27.70;94.40
12315;DHT22;23886;46.614;14.276;2022-08-03T10:54:44;27.80;94.40
12315;DHT22;23886;46.614;14.276;2022-08-03T10:57:47;27.70;93.70
12315;DHT22;23886;46.614;14.276;2022-08-03T11:00:14;27.80;94.40
12315;DHT22;23886;46.614;14.276;2022-08-03T11:03:00;27.90;93.90
12315;DHT22;23886;46.614;14.276;2022-08-03T11:05:28;27.90;94.50
12315;DHT22;23886;46.614;14.276;2022-08-03T11:08:18;28.00;95.10
12315;DHT22;23886;46.614;14.276;2022-08-03T11:10:45;28.10;93.70
12315;DHT22;23886;46.614;14.276;2022-08-03T11:13:15;28.30;94.50
12315;DHT22;23886;46.614;14.276;2022-08-03T11:15:45;28.40;93.80
12315;DHT22;23886;46.614;14.276;2022-08-03T11:18:13;28.50;93.80
12315;DHT22;23886;46.614;14.276;2022-08-03T11:20:44;28.60;94.20
12315;DHT22;23886;46.614;14.276;2022-08-03T11:23:12;28.80;94.00
12315;DHT22;23886;46.614;14.276;2022-08-03T11:26:07;28.90;93.30
12315;DHT22;23886;46.614;14.276;2022-08-03T11:28:36;29.10;93.50
12315;DHT22;23886;46.614;14.276;2022-08-03T11:31:45;29.10;91.70
12315;DHT22;23886;46.614;14.276;2022-08-03T11:34:13;29.10;92.60
12315;DHT22;23886;46.614;14.276;2022-08-03T11:37:18;29.20;92.60
12315;DHT22;23886;46.614;14.276;2022-08-03T11:39:52;29.30;93.50
12315;DHT22;23886;46.614;14.276;2022-08-03T11:42:40;29.40;93.10
12315;DHT22;23886;46.614;14.276;2022-08-03T11:45:11;29.60;93.80
12315;DHT22;23886;46.614;14.276;2022-08-03T11:47:40;29.80;92.80
12315;DHT22;23886;46.614;14.276;2022-08-03T11:50:08;29.80;92.50
12315;DHT22;23886;46.614;14.276;2022-08-03T11:52:40;30.20;92.40
12315;DHT22;23886;46.614;14.276;2022-08-03T11:55:13;30.50;92.20
12315;DHT22;23886;46.614;14.276;2022-08-03T11:57:40;30.70;89.90
12315;DHT22;23886;46.614;14.276;2022-08-03T12:00:27;31.40;90.70
12315;DHT22;23886;46.614;14.276;2022-08-03T12:03:00;31.80;88.90
12315;DHT22;23886;46.614;14.276;2022-08-03T12:05:35;31.60;85.50
12315;DHT22;23886;46.614;14.276;2022-08-03T12:08:02;32.20;84.40
12315;DHT22;23886;46.614;14.276;2022-08-03T12:10:30;32.90;80.80
12315;DHT22;23886;46.614;14.276;2022-08-03T12:12:59;33.10;78.20
12315;DHT22;23886;46.614;14.276;2022-08-03T12:15:30;33.50;79.40
12315;DHT22;23886;46.614;14.276;2022-08-03T12:17:58;34.00;77.50
12315;DHT22;23886;46.614;14.276;2022-08-03T12:20:27;34.10;78.10
12315;DHT22;23886;46.614;14.276;2022-08-03T12:23:01;34.50;76.30
12315;DHT22;23886;46.614;14.276;2022-08-03T12:25:28;34.20;76.40
12315;DHT22;23886;46.614;14.276;2022-08-03T12:28:07;34.60;71.70
12315;DHT22;23886;46.614;14.276;2022-08-03T12:30:36;34.80;75.10
12315;DHT22;23886;46.614;14.276;2022-08-03T12:33:18;35.30;71.30
12315;DHT22;23886;46.614;14.276;2022-08-03T12:35:49;35.60;71.10
12315;DHT22;23886;46.614;14.276;2022-08-03T12:38:21;35.70;69.80
12315;DHT22;23886;46.614;14.276;2022-08-03T12:40:56;35.80;69.20
12315;DHT22;23886;46.614;14.276;2022-08-03T12:43:23;35.40;67.70
12315;DHT22;23886;46.614;14.276;2022-08-03T12:46:12;35.10;68.10
12315;DHT22;23886;46.614;14.276;2022-08-03T12:48:59;36.10;70.10
12315;DHT22;23886;46.614;14.276;2022-08-03T12:51:27;36.80;66.90
12315;DHT22;23886;46.614;14.276;2022-08-03T12:53:55;36.50;63.20
12315;DHT22;23886;46.614;14.276;2022-08-03T12:56:23;36.40;67.30
12315;DHT22;23886;46.614;14.276;2022-08-03T12:58:50;36.00;63.40
12315;DHT22;23886;46.614;14.276;2022-08-03T13:01:19;35.70;63.70
12315;DHT22;23886;46.614;14.276;2022-08-03T13:03:50;35.50;63.70
12315;DHT22;23886;46.614;14.276;2022-08-03T13:06:19;35.40;63.50
12315;DHT22;23886;46.614;14.276;2022-08-03T13:08:47;35.90;60.00
12315;DHT22;23886;46.614;14.276;2022-08-03T13:11:23;35.90;61.10
12315;DHT22;23886;46.614;14.276;2022-08-03T13:13:51;35.80;60.00
12315;DHT22;23886;46.614;14.276;2022-08-03T13:16:20;35.80;60.90
12315;DHT22;23886;46.614;14.276;2022-08-03T13:18:48;37.10;60.50
12315;DHT22;23886;46.614;14.276;2022-08-03T13:21:18;37.50;58.80
12315;DHT22;23886;46.614;14.276;2022-08-03T13:23:45;37.50;60.40
12315;DHT22;23886;46.614;14.276;2022-08-03T13:26:13;37.40;59.30
12315;DHT22;23886;46.614;14.276;2022-08-03T13:28:40;37.40;56.00
12315;DHT22;23886;46.614;14.276;2022-08-03T13:31:07;37.00;56.40
12315;DHT22;23886;46.614;14.276;2022-08-03T13:33:35;36.80;58.20
12315;DHT22;23886;46.614;14.276;2022-08-03T13:36:04;37.50;58.90
12315;DHT22;23886;46.614;14.276;2022-08-03T13:38:31;37.10;55.30
12315;DHT22;23886;46.614;14.276;2022-08-03T13:40:59;37.10;55.30
12315;DHT22;23886;46.614;14.276;2022-08-03T13:43:27;36.60;58.30
12315;DHT22;23886;46.614;14.276;2022-08-03T13:45:54;37.60;56.30
12315;DHT22;23886;46.614;14.276;2022-08-03T13:48:21;37.50;54.40
12315;DHT22;23886;46.614;14.276;2022-08-03T13:50:49;37.60;55.00
12315;DHT22;23886;46.614;14.276;2022-08-03T13:53:16;37.40;53.60
12315;DHT22;23886;46.614;14.276;2022-08-03T13:55:43;37.60;53.70
12315;DHT22;23886;46.614;14.276;2022-08-03T13:58:10;38.00;54.30
12315;DHT22;23886;46.614;14.276;2022-08-03T14:00:37;37.70;53.40
12315;DHT22;23886;46.614;14.276;2022-08-03T14:03:05;37.80;53.30
12315;DHT22;23886;46.614;14.276;2022-08-03T14:05:33;37.90;51.70
12315;DHT22;23886;46.614;14.276;2022-08-03T14:08:02;38.50;51.30
12315;DHT22;23886;46.614;14.276;2022-08-03T14:10:30;38.90;50.80
12315;DHT22;23886;46.614;14.276;2022-08-03T14:12:57;38.80;52.60
12315;DHT22;23886;46.614;14.276;2022-08-03T14:15:25;38.50;51.80
12315;DHT22;23886;46.614;14.276;2022-08-03T14:17:53;37.70;53.60
12315;DHT22;23886;46.614;14.276;2022-08-03T14:20:20;37.30;53.60
12315;DHT22;23886;46.614;14.276;2022-08-03T14:22:48;36.80;53.60
12315;DHT22;23886;46.614;14.276;2022-08-03T14:25:16;37.50;54.00
12315;DHT22;23886;46.614;14.276;2022-08-03T14:27:43;37.20;54.10
12315;DHT22;23886;46.614;14.276;2022-08-03T14:30:11;37.80;52.90
12315;DHT22;23886;46.614;14.276;2022-08-03T14:32:38;37.40;53.50
12315;DHT22;23886;46.614;14.276;2022-08-03T14:35:06;38.70;53.20
12315;DHT22;23886;46.614;14.276;2022-08-03T14:37:33;39.40;52.80
12315;DHT22;23886;46.614;14.276;2022-08-03T14:40:00;40.80;49.90
12315;DHT22;23886;46.614;14.276;2022-08-03T14:42:28;39.20;51.30
12315;DHT22;23886;46.614;14.276;2022-08-03T14:44:55;40.00;47.80
12315;DHT22;23886;46.614;14.276;2022-08-03T14:47:22;38.80;51.00
12315;DHT22;23886;46.614;14.276;2022-08-03T14:49:49;38.70;53.80
12315;DHT22;23886;46.614;14.276;2022-08-03T14:52:16;39.00;52.10
12315;DHT22;23886;46.614;14.276;2022-08-03T14:54:44;39.20;49.00
12315;DHT22;23886;46.614;14.276;2022-08-03T14:57:11;39.00;49.60
12315;DHT22;23886;46.614;14.276;2022-08-03T14:59:39;39.00;50.90
12315;DHT22;23886;46.614;14.276;2022-08-03T15:02:07;39.20;51.50
12315;DHT22;23886;46.614;14.276;2022-08-03T15:04:34;38.80;50.10
12315;DHT22;23886;46.614;14.276;2022-08-03T15:07:02;38.60;48.60
12315;DHT22;23886;46.614;14.276;2022-08-03T15:09:29;37.60;51.30
12315;DHT22;23886;46.614;14.276;2022-08-03T15:11:56;37.90;50.70
12315;DHT22;23886;46.614;14.276;2022-08-03T15:14:23;37.80;50.50
12315;DHT22;23886;46.614;14.276;2022-08-03T15:16:51;38.70;51.90
12315;DHT22;23886;46.614;14.276;2022-08-03T15:19:18;39.00;48.70
12315;DHT22;23886;46.614;14.276;2022-08-03T15:21:45;37.90;48.00
12315;DHT22;23886;46.614;14.276;2022-08-03T15:24:12;38.80;47.30
12315;DHT22;23886;46.614;14.276;2022-08-03T15:26:39;38.90;47.60
12315;DHT22;23886;46.614;14.276;2022-08-03T15:29:06;40.10;45.90